Time;durP1;ratioP1;P1;durP2;ratioP2;P2;SDS_P1;SDS_P2;PMS_P1;PMS_P2;Temp;Humidity;BMP_temperature;BMP_pressure;BME280_temperature;BME280_humidity;BME280_pressure;Samples;Min_cycle;Max_cycle;Signal;HPM_P1;HPM_P2
2023/03/18 00:00:16;;;;;;;5.47;2.47;;;13.00;99.90;;;;;;5049947;28;20213;-77
2023/03/18 00:02:42;;;;;;;4.60;2.80;;;13.00;99.90;;;;;;5048480;28;20435;-76
2023/03/18 00:05:09;;;;;;;4.67;2.97;;;13.00;99.90;;;;;;5049360;28;20932;-77
2023/03/18 00:07:36;;;;;;;8.20;2.63;;;13.00;99.90;;;;;;5048312;28;20833;-77
2023/03/18 00:10:06;;;;;;;3.80;2.40;;;13.00;99.90;;;;;;5048224;28;20823;-77
2023/03/18 00:12:33;;;;;;;7.20;2.73;;;13.00;99.90;;;;;;5049339;28;20527;-76
2023/03/18 00:14:59;;;;;;;3.10;2.47;;;13.00;99.90;;;;;;5047926;28;20413;-76
2023/03/18 00:17:25;;;;;;;10.40;3.23;;;12.90;99.90;;;;;;5048402;28;20408;-77
2023/03/18 00:19:51;;;;;;;4.60;2.90;;;12.90;99.90;;;;;;5049683;28;20816;-76
2023/03/18 00:22:17;;;;;;;5.83;3.30;;;12.90;99.90;;;;;;5047874;28;20408;-77
2023/03/18 00:24:43;;;;;;;7.00;3.40;;;12.90;99.90;;;;;;5048085;28;20194;-76
2023/03/18 00:27:09;;;;;;;3.90;3.17;;;12.80;99.90;;;;;;5049720;28;20939;-76
2023/03/18 00:29:34;;;;;;;4.80;3.30;;;12.80;99.90;;;;;;5048165;28;20272;-76
2023/03/18 00:32:00;;;;;;;5.23;2.80;;;12.80;99.90;;;;;;5048549;28;20846;-76
2023/03/18 00:34:26;;;;;;;5.87;3.57;;;12.70;99.90;;;;;;5049045;28;20585;-76
2023/03/18 00:36:55;;;;;;;6.33;3.10;;;12.70;99.90;;;;;;5023575;28;20892;-76
2023/03/18 00:39:25;;;;;;;5.23;3.20;;;12.70;99.90;;;;;;5056943;28;20464;-76
2023/03/18 00:41:53;;;;;;;3.73;2.60;;;12.60;99.90;;;;;;5048838;28;20500;-76
2023/03/18 00:44:19;;;;;;;4.93;2.70;;;12.60;99.90;;;;;;5041187;28;20896;-76
2023/03/18 00:46:45;;;;;;;5.67;3.03;;;12.60;99.90;;;;;;5038964;28;20436;-76
2023/03/18 00:49:11;;;;;;;6.10;3.00;;;12.60;99.90;;;;;;5046775;28;20224;-76
2023/03/18 00:51:38;;;;;;;6.30;3.20;;;12.50;99.90;;;;;;5041776;28;21123;-76
2023/03/18 00:54:06;;;;;;;5.33;2.97;;;12.50;99.90;;;;;;5049724;28;20521;-76
2023/03/18 00:56:33;;;;;;;3.80;2.73;;;12.50;99.90;;;;;;5049857;28;20793;-76
2023/03/18 00:58:59;;;;;;;4.33;3.40;;;12.50;99.90;;;;;;5048785;28;20543;-76
2023/03/18 01:01:26;;;;;;;4.93;2.97;;;12.50;99.90;;;;;;5049340;28;21030;-76
2023/03/18 01:03:52;;;;;;;3.37;2.53;;;12.60;99.90;;;;;;5048611;28;20521;-76
2023/03/18 01:06:27;;;;;;;4.93;2.90;;;12.60;99.90;;;;;;5042091;28;20412;-76
2023/03/18 01:08:54;;;;;;;3.90;3.20;;;12.60;99.90;;;;;;5045770;28;20423;-76
2023/03/18 01:11:20;;;;;;;2.77;2.57;;;12.60;99.90;;;;;;5047597;28;20423;-76
2023/03/18 01:13:46;;;;;;;5.50;2.83;;;12.60;99.90;;;;;;5047537;28;20503;-76
2023/03/18 01:16:13;;;;;;;5.90;3.30;;;12.50;99.90;;;;;;5049385;28;20451;-76
2023/03/18 01:18:40;;;;;;;5.67;2.47;;;12.50;99.90;;;;;;5048806;28;21020;-76
2023/03/18 01:21:07;;;;;;;6.37;3.20;;;12.50;99.90;;;;;;5048895;28;21232;-76
2023/03/18 01:23:34;;;;;;;4.63;3.17;;;12.50;99.90;;;;;;5048209;28;20455;-76
2023/03/18 01:26:00;;;;;;;5.10;3.33;;;12.50;99.90;;;;;;5044627;28;20424;-75
2023/03/18 01:28:26;;;;;;;3.40;2.30;;;12.50;99.90;;;;;;5047846;28;20924;-76
2023/03/18 01:30:52;;;;;;;6.73;3.00;;;12.40;99.90;;;;;;5048905;28;20423;-76
2023/03/18 01:33:18;;;;;;;4.43;2.83;;;12.40;99.90;;;;;;5048675;28;20440;-76
2023/03/18 01:35:46;;;;;;;5.80;3.20;;;12.40;99.90;;;;;;5049009;28;20186;-76
2023/03/18 01:38:12;;;;;;;4.20;3.50;;;12.30;99.90;;;;;;5053953;28;20423;-76
2023/03/18 01:40:44;;;;;;;5.67;3.40;;;12.30;99.90;;;;;;5050471;28;20452;-76
2023/03/18 01:43:10;;;;;;;5.77;3.30;;;12.40;99.90;;;;;;5036277;28;20523;-76
2023/03/18 01:45:35;;;;;;;4.40;3.03;;;12.40;99.90;;;;;;5046635;28;20519;-77
2023/03/18 01:48:01;;;;;;;5.17;3.23;;;12.40;99.90;;;;;;5048959;28;20496;-76
2023/03/18 01:50:31;;;;;;;7.80;3.73;;;12.50;99.90;;;;;;5046706;28;20186;-76
2023/03/18 01:53:09;;;;;;;6.20;3.50;;;12.50;99.90;;;;;;5041435;28;20458;-76
2023/03/18 01:55:36;;;;;;;6.97;3.73;;;12.40;99.90;;;;;;5039107;28;20487;-76
2023/03/18 01:58:17;;;;;;;7.40;2.73;;;12.40;99.90;;;;;;5040963;28;20451;-76
2023/03/18 02:01:02;;;;;;;6.27;3.30;;;12.40;99.90;;;;;;5047601;28;20456;-76
2023/03/18 02:03:28;;;;;;;5.47;3.00;;;12.40;99.90;;;;;;5040117;28;20987;-76
2023/03/18 02:05:54;;;;;;;3.90;2.97;;;12.40;99.90;;;;;;5044790;28;20496;-76
2023/03/18 02:08:20;;;;;;;6.73;3.70;;;12.30;99.90;;;;;;5045150;28;20496;-76
2023/03/18 02:10:47;;;;;;;6.70;3.77;;;12.40;99.90;;;;;;5050261;28;20431;-76
2023/03/18 02:13:14;;;;;;;4.10;3.17;;;12.40;99.90;;;;;;5051062;28;20447;-76
2023/03/18 02:15:55;;;;;;;3.37;2.73;;;12.40;99.90;;;;;;5050166;28;20416;-76
2023/03/18 02:18:32;;;;;;;3.97;2.97;;;12.40;99.90;;;;;;5055402;28;20779;-76
2023/03/18 02:21:13;;;;;;;6.57;2.83;;;12.40;99.90;;;;;;5045503;28;20459;-76
2023/03/18 02:24:33;;;;;;;5.33;3.63;;;12.40;99.90;;;;;;5050187;28;20990;-76
2023/03/18 02:27:26;;;;;;;3.27;2.90;;;12.40;99.90;;;;;;5006739;28;20424;-76
2023/03/18 02:29:56;;;;;;;7.63;4.57;;;12.40;99.90;;;;;;5022448;28;20417;-76
2023/03/18 02:32:26;;;;;;;6.30;3.60;;;12.40;99.90;;;;;;5045456;28;20491;-76
2023/03/18 02:34:53;;;;;;;4.83;3.77;;;12.40;99.90;;;;;;5040880;28;20417;-76
2023/03/18 02:37:19;;;;;;;4.20;2.80;;;12.40;99.90;;;;;;5046607;28;20424;-76
2023/03/18 02:39:44;;;;;;;5.57;2.93;;;12.40;99.90;;;;;;5052367;28;20464;-76
2023/03/18 02:42:13;;;;;;;4.03;3.17;;;12.40;99.90;;;;;;5051380;28;20520;-76
2023/03/18 02:44:44;;;;;;;5.33;3.13;;;12.30;99.90;;;;;;5051970;28;20221;-76
2023/03/18 02:47:16;;;;;;;3.90;3.03;;;12.30;99.90;;;;;;5046330;28;20470;-76
2023/03/18 02:49:42;;;;;;;5.27;3.57;;;12.40;99.90;;;;;;5050267;28;20428;-76
2023/03/18 02:52:08;;;;;;;3.40;2.87;;;12.30;99.90;;;;;;5050978;28;20470;-75
2023/03/18 02:54:34;;;;;;;6.40;3.90;;;12.40;99.90;;;;;;5050634;28;20244;-76
2023/03/18 02:57:01;;;;;;;5.97;3.00;;;12.30;99.90;;;;;;5050936;28;20412;-76
2023/03/18 02:59:27;;;;;;;5.93;3.33;;;12.40;99.90;;;;;;5052041;28;20229;-76
2023/03/18 03:01:54;;;;;;;7.93;3.77;;;12.30;99.90;;;;;;5046916;28;20447;-76
2023/03/18 03:04:22;;;;;;;4.90;3.37;;;12.30;99.90;;;;;;5044173;28;20445;-76
2023/03/18 03:06:49;;;;;;;3.90;3.43;;;12.30;99.90;;;;;;5050811;28;20869;-76
2023/03/18 03:09:16;;;;;;;3.80;2.90;;;12.30;99.90;;;;;;5066156;28;20428;-76
2023/03/18 03:11:43;;;;;;;3.90;3.57;;;12.40;99.90;;;;;;5049057;28;20424;-76
2023/03/18 03:14:10;;;;;;;3.80;3.30;;;12.30;99.90;;;;;;5044383;28;20471;-76
2023/03/18 03:16:36;;;;;;;7.87;4.27;;;12.30;99.90;;;;;;5051924;28;21016;-76
2023/03/18 03:19:04;;;;;;;4.60;3.50;;;12.20;99.90;;;;;;5050862;28;20468;-76
2023/03/18 03:21:32;;;;;;;5.83;3.67;;;12.20;99.90;;;;;;5049466;28;20503;-76
2023/03/18 03:23:58;;;;;;;3.67;3.37;;;12.20;99.90;;;;;;5051110;28;20444;-76
2023/03/18 03:26:24;;;;;;;5.37;3.57;;;12.20;99.90;;;;;;5051434;28;20929;-76
2023/03/18 03:28:50;;;;;;;4.50;3.60;;;12.20;99.90;;;;;;5050733;28;20419;-76
2023/03/18 03:31:16;;;;;;;6.60;4.27;;;12.10;99.90;;;;;;5049732;28;20413;-76
2023/03/18 03:33:43;;;;;;;6.77;4.50;;;12.10;99.90;;;;;;5050839;28;20202;-76
2023/03/18 03:36:10;;;;;;;6.13;3.90;;;12.20;99.90;;;;;;5043425;28;20416;-76
2023/03/18 03:38:36;;;;;;;4.70;3.60;;;12.10;99.90;;;;;;5049796;28;20802;-76
2023/03/18 03:41:02;;;;;;;4.27;3.50;;;12.10;99.90;;;;;;5051049;28;20417;-76
2023/03/18 03:43:28;;;;;;;7.70;3.80;;;12.10;99.90;;;;;;5050601;28;20439;-76
2023/03/18 03:45:54;;;;;;;5.60;4.17;;;12.20;99.90;;;;;;5050839;28;20186;-76
2023/03/18 03:48:20;;;;;;;5.20;3.97;;;12.20;99.90;;;;;;5036577;28;20424;-76
2023/03/18 03:50:46;;;;;;;6.03;3.93;;;12.20;99.90;;;;;;5050118;28;20412;-76
2023/03/18 03:53:12;;;;;;;6.13;3.67;;;12.20;99.90;;;;;;5050054;28;20200;-76
2023/03/18 03:55:38;;;;;;;5.97;3.73;;;12.20;99.90;;;;;;5051192;28;20412;-76
2023/03/18 03:58:03;;;;;;;6.57;4.10;;;12.10;99.90;;;;;;5049224;28;20404;-76
2023/03/18 04:00:29;;;;;;;7.47;4.10;;;12.10;99.90;;;;;;5049138;28;20228;-76
2023/03/18 04:02:55;;;;;;;4.67;3.97;;;12.10;99.90;;;;;;5050394;28;20243;-76
2023/03/18 04:05:23;;;;;;;5.93;3.93;;;12.00;99.90;;;;;;5050408;28;20232;-76
2023/03/18 04:07:50;;;;;;;4.73;4.33;;;12.00;99.90;;;;;;5045648;28;20183;-76
2023/03/18 04:10:18;;;;;;;8.53;4.50;;;12.00;99.90;;;;;;5044748;28;20482;-76
2023/03/18 04:12:44;;;;;;;6.90;4.53;;;12.00;99.90;;;;;;5048049;28;20452;-76
2023/03/18 04:15:11;;;;;;;6.90;4.10;;;12.00;99.90;;;;;;5047171;28;21094;-76
2023/03/18 04:17:37;;;;;;;5.50;4.60;;;11.90;99.90;;;;;;5048698;28;20463;-76
2023/03/18 04:20:04;;;;;;;5.87;4.73;;;11.90;99.90;;;;;;5048743;28;21023;-76
2023/03/18 04:22:30;;;;;;;5.57;4.50;;;11.90;99.90;;;;;;5050231;28;20412;-75
2023/03/18 04:24:56;;;;;;;7.60;4.50;;;11.80;99.90;;;;;;5040399;28;20417;-76
2023/03/18 04:27:21;;;;;;;5.93;4.17;;;11.80;99.90;;;;;;5050034;28;20482;-76
2023/03/18 04:29:47;;;;;;;6.57;4.40;;;11.80;99.90;;;;;;5048381;28;20177;-76
2023/03/18 04:32:13;;;;;;;4.90;4.40;;;11.70;99.90;;;;;;5050167;28;20185;-75
2023/03/18 04:34:39;;;;;;;4.47;3.80;;;11.70;99.90;;;;;;5048688;28;20448;-76
2023/03/18 04:37:05;;;;;;;6.60;4.30;;;11.70;99.90;;;;;;5048879;28;21099;-76
2023/03/18 04:39:30;;;;;;;5.93;4.43;;;11.70;99.90;;;;;;5056821;28;20284;-76
2023/03/18 04:41:57;;;;;;;4.93;4.27;;;11.70;99.90;;;;;;5050054;28;20178;-76
2023/03/18 04:44:24;;;;;;;6.73;4.57;;;11.70;99.90;;;;;;5049599;28;20190;-76
2023/03/18 04:46:51;;;;;;;5.17;4.07;;;11.70;99.90;;;;;;5046716;28;20417;-76
2023/03/18 04:49:16;;;;;;;9.00;5.40;;;11.70;99.90;;;;;;5047067;28;20416;-76
2023/03/18 04:51:42;;;;;;;5.00;4.50;;;11.70;99.90;;;;;;5048838;28;20419;-76
2023/03/18 04:54:08;;;;;;;5.43;4.47;;;11.70;99.90;;;;;;5049658;28;20694;-76
2023/03/18 04:56:34;;;;;;;6.10;4.83;;;11.70;99.90;;;;;;5041199;28;20185;-76
2023/03/18 04:59:00;;;;;;;5.90;5.30;;;11.70;99.90;;;;;;5048123;28;20210;-76
2023/03/18 05:01:25;;;;;;;6.90;4.87;;;11.70;99.90;;;;;;5048142;28;20186;-76
2023/03/18 05:03:51;;;;;;;6.60;5.00;;;11.70;99.90;;;;;;5049451;28;21221;-76
2023/03/18 05:06:23;;;;;;;7.90;5.57;;;11.70;99.90;;;;;;5049916;28;20181;-76
2023/03/18 05:08:50;;;;;;;8.80;4.93;;;11.80;99.90;;;;;;5048158;28;20174;-76
2023/03/18 05:11:16;;;;;;;8.23;5.17;;;11.80;99.90;;;;;;5049533;28;20465;-76
2023/03/18 05:13:42;;;;;;;6.87;5.03;;;11.80;99.90;;;;;;5049145;28;20460;-76
2023/03/18 05:16:08;;;;;;;5.77;5.17;;;11.80;99.90;;;;;;5049744;28;20813;-75
2023/03/18 05:18:35;;;;;;;5.30;4.80;;;11.80;99.90;;;;;;5049219;28;20531;-76
2023/03/18 05:21:01;;;;;;;6.13;4.97;;;11.80;99.90;;;;;;5048134;28;20547;-76
2023/03/18 05:23:28;;;;;;;6.77;5.73;;;11.80;99.90;;;;;;5049026;28;20428;-75
2023/03/18 05:25:54;;;;;;;5.20;4.70;;;11.80;99.90;;;;;;5049638;28;20553;-76
2023/03/18 05:28:20;;;;;;;5.83;5.00;;;11.80;99.90;;;;;;5049317;28;20846;-76
2023/03/18 05:30:46;;;;;;;5.97;4.50;;;11.80;99.90;;;;;;5047899;28;20411;-75
2023/03/18 05:33:12;;;;;;;5.37;4.33;;;11.80;99.90;;;;;;5049326;28;20801;-76
2023/03/18 05:35:38;;;;;;;5.13;4.63;;;11.80;99.90;;;;;;5049447;28;20880;-76
2023/03/18 05:38:06;;;;;;;8.50;5.13;;;11.90;99.90;;;;;;5053177;28;20492;-75
2023/03/18 05:40:32;;;;;;;5.43;4.57;;;11.80;99.90;;;;;;5069120;28;20193;-75
2023/03/18 05:42:58;;;;;;;6.30;4.83;;;11.90;99.90;;;;;;5068962;28;20431;-75
2023/03/18 05:45:24;;;;;;;6.80;5.20;;;11.90;99.90;;;;;;5069374;28;20980;-76
2023/03/18 05:47:50;;;;;;;7.50;5.10;;;11.90;99.90;;;;;;5069184;28;20179;-75
2023/03/18 05:50:37;;;;;;;6.03;4.77;;;11.90;99.90;;;;;;5067663;28;20403;-75
2023/03/18 05:53:04;;;;;;;7.37;5.23;;;11.90;99.90;;;;;;5068941;28;20927;-75
2023/03/18 05:55:30;;;;;;;5.07;4.53;;;11.90;99.90;;;;;;5067952;28;20545;-76
2023/03/18 05:57:57;;;;;;;5.70;4.53;;;11.90;99.90;;;;;;5068791;28;20457;-75
2023/03/18 06:00:23;;;;;;;8.60;5.17;;;12.00;99.90;;;;;;5067465;28;20554;-75
2023/03/18 06:02:51;;;;;;;4.63;4.23;;;12.00;99.90;;;;;;5068837;28;20833;-75
2023/03/18 06:05:17;;;;;;;5.83;4.60;;;12.00;99.90;;;;;;5068858;28;20407;-76
2023/03/18 06:07:44;;;;;;;11.00;5.60;;;12.00;99.90;;;;;;5068853;28;20494;-76
2023/03/18 06:10:11;;;;;;;7.90;5.47;;;12.00;99.90;;;;;;5068654;28;20422;-75
2023/03/18 06:12:37;;;;;;;6.10;4.97;;;12.10;99.90;;;;;;5067601;28;20431;-76
2023/03/18 06:15:05;;;;;;;5.77;4.77;;;12.10;99.90;;;;;;5068601;28;20785;-76
2023/03/18 06:17:31;;;;;;;5.53;5.03;;;12.10;99.90;;;;;;5068794;28;20411;-75
2023/03/18 06:19:58;;;;;;;5.27;4.57;;;12.10;99.90;;;;;;5068662;28;20518;-76
2023/03/18 06:22:24;;;;;;;10.30;5.60;;;12.10;99.90;;;;;;5069110;28;20441;-75
2023/03/18 06:24:52;;;;;;;10.10;5.60;;;12.10;99.90;;;;;;5068565;28;20165;-76
2023/03/18 06:27:18;;;;;;;7.23;5.37;;;12.10;99.90;;;;;;5068662;28;20494;-75
2023/03/18 06:29:43;;;;;;;9.20;5.30;;;12.10;99.90;;;;;;5068648;28;20419;-75
2023/03/18 06:32:09;;;;;;;7.27;5.30;;;12.10;99.90;;;;;;5068941;28;20415;-75
2023/03/18 06:34:35;;;;;;;5.40;4.90;;;12.10;99.90;;;;;;5068451;28;20232;-76
2023/03/18 06:37:02;;;;;;;5.53;4.77;;;12.10;99.90;;;;;;5068736;28;20411;-75
2023/03/18 06:39:28;;;;;;;7.63;5.00;;;12.10;99.90;;;;;;5052920;28;20216;-76
2023/03/18 06:41:54;;;;;;;5.37;4.87;;;12.10;99.90;;;;;;5048405;28;20762;-76
2023/03/18 06:44:23;;;;;;;5.80;4.63;;;12.20;99.90;;;;;;5047949;28;20436;-76
2023/03/18 06:46:49;;;;;;;7.07;4.93;;;12.20;99.90;;;;;;5048099;28;20409;-76
2023/03/18 06:49:16;;;;;;;8.13;4.90;;;12.20;99.90;;;;;;5048376;28;20897;-76
2023/03/18 06:51:42;;;;;;;6.73;5.23;;;12.20;99.90;;;;;;5048267;28;20700;-76
2023/03/18 06:54:08;;;;;;;5.93;5.20;;;12.20;99.90;;;;;;5049782;28;20432;-76
2023/03/18 06:56:40;;;;;;;6.80;5.17;;;12.20;99.90;;;;;;5052030;28;20417;-76
2023/03/18 06:59:08;;;;;;;8.83;5.20;;;12.20;99.90;;;;;;5050326;28;20821;-76
2023/03/18 07:01:34;;;;;;;6.50;5.00;;;12.20;99.90;;;;;;5051740;28;20833;-76
2023/03/18 07:04:01;;;;;;;5.53;4.93;;;12.20;99.90;;;;;;5050170;28;20432;-76
2023/03/18 07:06:28;;;;;;;5.33;4.83;;;12.20;99.90;;;;;;5051977;28;20409;-76
2023/03/18 07:08:58;;;;;;;5.23;4.67;;;12.20;99.90;;;;;;5051323;28;20408;-76
2023/03/18 07:11:24;;;;;;;5.60;5.00;;;12.20;99.90;;;;;;5046742;28;20948;-76
2023/03/18 07:13:51;;;;;;;6.60;4.80;;;12.20;99.90;;;;;;5050934;28;20510;-75
2023/03/18 07:16:17;;;;;;;8.00;5.30;;;12.20;99.90;;;;;;5048350;28;20751;-76
2023/03/18 07:18:43;;;;;;;5.57;4.97;;;12.30;99.90;;;;;;5040850;28;20477;-76
2023/03/18 07:21:09;;;;;;;7.80;5.27;;;12.30;99.90;;;;;;5045790;28;20472;-76
2023/03/18 07:23:35;;;;;;;5.87;5.07;;;12.30;99.90;;;;;;5050410;28;20244;-76
2023/03/18 07:26:01;;;;;;;5.60;4.80;;;12.30;99.90;;;;;;5050738;28;21077;-76
2023/03/18 07:28:26;;;;;;;8.43;6.00;;;12.30;99.90;;;;;;5048581;28;20507;-76
2023/03/18 07:30:53;;;;;;;5.57;5.03;;;12.30;99.90;;;;;;5033089;28;20649;-76
2023/03/18 07:33:19;;;;;;;6.17;4.70;;;12.40;99.90;;;;;;5050977;28;20201;-76
2023/03/18 07:35:44;;;;;;;5.33;4.83;;;12.40;99.90;;;;;;5050036;28;20416;-76
2023/03/18 07:38:11;;;;;;;6.47;4.63;;;12.50;99.90;;;;;;5050832;28;20288;-76
2023/03/18 07:40:37;;;;;;;5.73;4.60;;;12.50;99.90;;;;;;5050549;28;20209;-76
2023/03/18 07:43:04;;;;;;;5.93;4.80;;;12.60;99.90;;;;;;5048953;28;20436;-76
2023/03/18 07:45:30;;;;;;;5.80;4.93;;;12.60;99.90;;;;;;5049341;28;20424;-76
2023/03/18 07:47:56;;;;;;;5.10;4.60;;;12.70;99.90;;;;;;5050481;28;20412;-76
2023/03/18 07:50:21;;;;;;;6.63;4.67;;;12.80;99.90;;;;;;5050675;28;20190;-76
2023/03/18 07:52:47;;;;;;;5.90;4.60;;;12.90;99.90;;;;;;5046097;28;20452;-76
2023/03/18 07:55:14;;;;;;;5.97;4.53;;;12.90;99.90;;;;;;5050353;28;20197;-76
2023/03/18 07:57:40;;;;;;;9.33;4.93;;;13.00;99.90;;;;;;5049110;28;20192;-76
2023/03/18 08:00:09;;;;;;;6.40;4.70;;;13.20;99.90;;;;;;5047725;28;20464;-76
2023/03/18 08:02:35;;;;;;;5.57;4.50;;;13.30;99.90;;;;;;5050449;28;20499;-75
2023/03/18 08:05:02;;;;;;;4.70;4.30;;;13.40;99.90;;;;;;5045602;28;20520;-76
2023/03/18 08:07:28;;;;;;;5.50;4.90;;;13.50;99.90;;;;;;5049606;28;20412;-76
2023/03/18 08:09:54;;;;;;;4.97;4.13;;;13.70;99.90;;;;;;5048497;28;20424;-76
2023/03/18 08:12:20;;;;;;;5.03;4.17;;;13.90;99.90;;;;;;5044605;28;20450;-76
2023/03/18 08:14:47;;;;;;;5.07;4.20;;;14.10;99.90;;;;;;5044783;28;20447;-76
2023/03/18 08:17:13;;;;;;;4.17;3.77;;;14.30;99.90;;;;;;5047890;28;20428;-77
2023/03/18 08:19:38;;;;;;;3.70;3.40;;;14.40;99.90;;;;;;5048949;28;20460;-76
2023/03/18 08:22:04;;;;;;;6.70;4.40;;;14.50;99.90;;;;;;5050293;28;20416;-75
2023/03/18 08:24:30;;;;;;;4.83;3.83;;;14.50;99.90;;;;;;5050045;28;20284;-76
2023/03/18 08:26:55;;;;;;;4.00;3.60;;;14.60;99.90;;;;;;5049218;28;20178;-76
2023/03/18 08:29:22;;;;;;;4.63;3.90;;;14.60;99.90;;;;;;5048530;28;20223;-76
2023/03/18 08:31:48;;;;;;;5.33;3.90;;;14.60;99.90;;;;;;5044606;28;20182;-77
2023/03/18 08:34:14;;;;;;;4.20;3.80;;;14.50;99.90;;;;;;5047030;28;20517;-76
2023/03/18 08:36:41;;;;;;;5.30;3.70;;;14.50;99.90;;;;;;5044168;28;20194;-76
2023/03/18 08:39:08;;;;;;;4.50;4.10;;;14.40;99.90;;;;;;5046192;28;20869;-76
2023/03/18 08:41:35;;;;;;;5.17;3.83;;;14.40;99.90;;;;;;5048836;28;20424;-76
2023/03/18 08:44:01;;;;;;;6.73;4.20;;;14.30;99.90;;;;;;5045885;28;20944;-76
2023/03/18 08:46:27;;;;;;;6.07;3.70;;;14.30;99.90;;;;;;5035160;28;20487;-76
2023/03/18 08:48:53;;;;;;;4.80;3.40;;;14.20;99.90;;;;;;5029668;28;20483;-76
2023/03/18 08:51:21;;;;;;;4.67;3.47;;;14.30;99.90;;;;;;5029552;28;20409;-76
2023/03/18 08:53:47;;;;;;;7.30;4.23;;;14.30;99.90;;;;;;5029654;28;20198;-77
2023/03/18 08:56:14;;;;;;;5.30;3.43;;;14.30;99.90;;;;;;5031036;28;20416;-76
2023/03/18 08:58:40;;;;;;;4.30;3.90;;;14.20;99.90;;;;;;5029566;28;20417;-76
2023/03/18 09:01:06;;;;;;;6.33;4.50;;;14.20;99.90;;;;;;5038931;28;21203;-76
2023/03/18 09:03:33;;;;;;;4.00;3.43;;;14.10;99.90;;;;;;5040804;28;20256;-76
2023/03/18 09:05:59;;;;;;;3.20;2.90;;;14.10;99.90;;;;;;5047087;28;20412;-76
2023/03/18 09:08:27;;;;;;;4.13;3.73;;;14.10;99.90;;;;;;5046910;28;20412;-76
2023/03/18 09:10:52;;;;;;;5.80;3.67;;;14.10;99.90;;;;;;5040518;28;20503;-76
2023/03/18 09:13:19;;;;;;;4.90;4.00;;;14.10;99.90;;;;;;5038080;28;20567;-76
2023/03/18 09:15:45;;;;;;;4.33;4.03;;;14.10;99.90;;;;;;5034329;28;20178;-76
2023/03/18 09:18:12;;;;;;;4.53;4.13;;;14.10;99.90;;;;;;5048940;28;20412;-76
2023/03/18 09:20:39;;;;;;;4.47;3.60;;;14.20;99.90;;;;;;5047599;28;20460;-76
2023/03/18 09:23:05;;;;;;;3.60;3.30;;;14.20;99.90;;;;;;5044395;28;20455;-76
2023/03/18 09:25:31;;;;;;;5.00;4.13;;;14.20;99.90;;;;;;5049040;28;20401;-76
2023/03/18 09:27:57;;;;;;;5.37;4.43;;;14.20;99.90;;;;;;5048505;28;20729;-76
2023/03/18 09:30:24;;;;;;;4.37;4.07;;;14.20;99.90;;;;;;5049066;28;20186;-76
2023/03/18 09:32:50;;;;;;;4.60;4.20;;;14.10;99.90;;;;;;5048760;28;20428;-76
2023/03/18 09:35:15;;;;;;;4.73;4.23;;;14.10;99.90;;;;;;5045919;28;20452;-76
2023/03/18 09:37:42;;;;;;;4.47;4.07;;;14.10;99.90;;;;;;5047425;28;20200;-76
2023/03/18 09:40:18;;;;;;;5.57;4.50;;;14.10;99.90;;;;;;5049300;28;20702;-76
2023/03/18 09:42:55;;;;;;;5.70;4.50;;;14.10;99.90;;;;;;5047371;28;20972;-76
2023/03/18 09:45:35;;;;;;;4.60;4.27;;;14.20;99.90;;;;;;5048843;28;20434;-77
2023/03/18 09:48:04;;;;;;;4.40;4.00;;;14.20;99.90;;;;;;5045700;28;20412;-76
2023/03/18 09:50:32;;;;;;;4.70;4.30;;;14.30;99.90;;;;;;5048612;28;20415;-76
2023/03/18 09:53:26;;;;;;;4.43;4.00;;;14.40;99.90;;;;;;5048389;28;20446;-75
2023/03/18 09:55:55;;;;;;;4.53;4.23;;;14.50;99.90;;;;;;5047658;28;20784;-76
2023/03/18 09:58:52;;;;;;;4.73;4.33;;;14.60;99.90;;;;;;5047141;28;20447;-76
2023/03/18 10:01:21;;;;;;;4.73;4.27;;;14.80;99.90;;;;;;5048288;28;20439;-76
2023/03/18 10:03:49;;;;;;;6.13;4.40;;;14.90;99.90;;;;;;5046816;28;20424;-76
2023/03/18 10:06:20;;;;;;;4.83;4.43;;;15.10;99.90;;;;;;5047454;28;20416;-76
2023/03/18 10:08:55;;;;;;;5.33;4.00;;;15.20;99.90;;;;;;5047844;28;21090;-76
2023/03/18 10:11:33;;;;;;;4.03;3.73;;;15.30;99.90;;;;;;5046871;28;20467;-76
2023/03/18 10:14:20;;;;;;;4.20;3.80;;;15.40;99.90;;;;;;5046826;28;20534;-76
2023/03/18 10:17:08;;;;;;;4.03;3.63;;;15.50;99.90;;;;;;5047084;28;20507;-76
2023/03/18 10:19:35;;;;;;;4.23;3.83;;;15.60;99.90;;;;;;5048156;28;20455;-76
2023/03/18 10:22:12;;;;;;;4.10;3.73;;;15.70;99.90;;;;;;5048675;28;20424;-76
2023/03/18 10:25:12;;;;;;;3.90;3.60;;;15.80;99.90;;;;;;5047754;28;20435;-76
2023/03/18 10:27:58;;;;;;;3.80;3.47;;;15.90;99.90;;;;;;5045102;28;20412;-76
2023/03/18 10:31:03;;;;;;;4.67;4.00;;;15.90;99.90;;;;;;5052489;28;20396;-76
2023/03/18 10:33:50;;;;;;;3.77;3.47;;;16.00;99.90;;;;;;5034209;28;21175;-76
2023/03/18 10:36:34;;;;;;;3.30;3.00;;;15.90;99.90;;;;;;5052132;28;20416;-76
2023/03/18 10:39:02;;;;;;;7.80;4.00;;;15.90;99.90;;;;;;5051704;28;20484;-76
2023/03/18 10:41:32;;;;;;;3.83;3.53;;;15.90;99.90;;;;;;5051801;28;20495;-76
2023/03/18 10:44:21;;;;;;;3.73;3.43;;;15.80;99.90;;;;;;5051539;28;20570;-76
2023/03/18 10:46:49;;;;;;;3.70;3.37;;;15.90;99.90;;;;;;5051715;28;20420;-76
2023/03/18 10:49:23;;;;;;;4.33;3.97;;;15.80;99.90;;;;;;5052017;28;20420;-76
2023/03/18 10:51:53;;;;;;;3.93;3.50;;;15.90;99.90;;;;;;5050841;28;20407;-77
2023/03/18 10:54:38;;;;;;;3.40;3.13;;;16.00;99.90;;;;;;5051172;28;20433;-76
2023/03/18 10:57:04;;;;;;;3.80;3.37;;;16.10;99.90;;;;;;5051397;28;20511;-76
2023/03/18 10:59:30;;;;;;;3.70;3.40;;;16.20;99.90;;;;;;5041189;28;20535;-77
2023/03/18 11:02:03;;;;;;;5.23;3.77;;;16.20;99.90;;;;;;5045738;28;20531;-76
2023/03/18 11:04:34;;;;;;;4.57;3.73;;;16.30;99.90;;;;;;5047027;28;20251;-76
2023/03/18 11:07:04;;;;;;;4.10;3.57;;;16.40;99.90;;;;;;5051547;28;20780;-75
2023/03/18 11:09:34;;;;;;;3.80;3.37;;;16.50;99.90;;;;;;5050134;28;20829;-76
2023/03/18 11:12:06;;;;;;;3.67;3.37;;;16.50;99.90;;;;;;5050372;28;20447;-76
2023/03/18 11:14:36;;;;;;;3.80;3.33;;;16.50;99.90;;;;;;5050048;28;21057;-77
2023/03/18 11:17:05;;;;;;;3.50;3.20;;;16.50;99.90;;;;;;5051342;28;20420;-77
2023/03/18 11:19:40;;;;;;;4.77;4.27;;;16.60;99.90;;;;;;5051173;28;20444;-76
2023/03/18 11:22:12;;;;;;;4.13;3.10;;;16.70;99.90;;;;;;5050604;28;20427;-77
2023/03/18 11:24:41;;;;;;;3.53;2.93;;;16.90;99.90;;;;;;5049639;28;20432;-76
2023/03/18 11:27:31;;;;;;;2.53;2.33;;;16.90;99.90;;;;;;5051234;28;20427;-76
2023/03/18 11:30:01;;;;;;;2.87;2.60;;;17.00;99.90;;;;;;5050286;28;20944;-76
2023/03/18 11:32:35;;;;;;;5.87;2.20;;;17.10;99.90;;;;;;5046423;28;20503;-77
2023/03/18 11:35:04;;;;;;;2.63;2.00;;;17.20;99.90;;;;;;5050963;28;20416;-76
2023/03/18 11:37:35;;;;;;;2.50;2.30;;;17.20;99.90;;;;;;5049904;28;20494;-76
2023/03/18 11:40:12;;;;;;;3.63;2.17;;;17.20;99.90;;;;;;5030891;28;20797;-77
2023/03/18 11:42:39;;;;;;;2.67;2.47;;;17.30;99.90;;;;;;5040387;28;20430;-77
2023/03/18 11:45:25;;;;;;;3.63;2.10;;;17.30;99.90;;;;;;5050706;28;20408;-77
2023/03/18 11:47:52;;;;;;;2.60;2.30;;;17.40;99.90;;;;;;5048457;28;20421;-76
2023/03/18 11:50:24;;;;;;;4.47;2.80;;;17.40;99.90;;;;;;5031987;28;20781;-76
2023/03/18 11:53:08;;;;;;;3.40;3.10;;;17.40;99.90;;;;;;5037929;28;20523;-76
2023/03/18 11:55:45;;;;;;;2.00;1.90;;;17.40;99.90;;;;;;5043015;28;20799;-76
2023/03/18 11:58:37;;;;;;;2.10;1.90;;;17.40;99.90;;;;;;5038757;28;20443;-76
2023/03/18 12:01:12;;;;;;;5.10;2.20;;;17.40;99.90;;;;;;5049182;28;20509;-76
2023/03/18 12:04:16;;;;;;;2.43;2.23;;;17.50;99.90;;;;;;5044293;28;20436;-77
2023/03/18 12:06:54;;;;;;;6.10;2.57;;;17.50;99.90;;;;;;5049518;28;20420;-77
2023/03/18 12:09:39;;;;;;;2.53;1.93;;;17.50;99.90;;;;;;5050556;28;21350;-76
2023/03/18 12:12:18;;;;;;;2.77;1.93;;;17.50;99.90;;;;;;5049270;28;20455;-76
2023/03/18 12:14:48;;;;;;;3.73;1.83;;;17.50;99.90;;;;;;5050087;28;20436;-77
2023/03/18 12:17:40;;;;;;;2.90;2.10;;;17.60;99.90;;;;;;5050117;28;20839;-76
2023/03/18 12:20:22;;;;;;;2.37;2.17;;;17.60;99.90;;;;;;5050107;28;20980;-77
2023/03/18 12:23:20;;;;;;;2.77;1.77;;;17.60;99.90;;;;;;5050286;28;20823;-76
2023/03/18 12:26:04;;;;;;;3.70;2.43;;;17.60;99.90;;;;;;5042498;28;20425;-77
2023/03/18 12:28:42;;;;;;;2.90;2.30;;;17.60;99.90;;;;;;5048684;28;20411;-77
2023/03/18 12:31:39;;;;;;;2.10;1.90;;;17.60;99.90;;;;;;5049562;28;20416;-76
2023/03/18 12:34:33;;;;;;;4.47;2.80;;;17.50;99.90;;;;;;5049362;28;20436;-76
2023/03/18 12:37:14;;;;;;;2.90;2.00;;;17.40;99.90;;;;;;5037659;28;20412;-77
2023/03/18 12:39:46;;;;;;;2.50;2.00;;;17.40;99.90;;;;;;5050139;28;20483;-77
2023/03/18 12:42:44;;;;;;;2.90;1.60;;;17.40;99.90;;;;;;5050086;28;20470;-77
2023/03/18 12:45:16;;;;;;;2.10;1.90;;;17.40;99.90;;;;;;5035732;28;20842;-77
2023/03/18 12:47:50;;;;;;;1.80;1.70;;;17.40;99.90;;;;;;5060477;28;20854;-77
2023/03/18 12:50:27;;;;;;;1.50;1.40;;;17.40;99.90;;;;;;5049258;28;20420;-77
2023/03/18 12:52:59;;;;;;;2.37;1.60;;;17.40;99.90;;;;;;5046609;28;20479;-77
2023/03/18 12:55:36;;;;;;;2.60;1.83;;;17.30;99.90;;;;;;5048327;28;20420;-77
2023/03/18 12:58:16;;;;;;;1.67;1.57;;;17.30;99.90;;;;;;5040307;28;20420;-77